sensor_id;sensor_type;location;lat;lon;timestamp;temperature;humidity
27270;DHT22;14769;56.934;24.176;2023-02-24T00:00:13;-0.20;99.90
27270;DHT22;14769;56.934;24.176;2023-02-24T00:01:33;-0.20;99.90
27270;DHT22;14769;56.934;24.176;2023-02-24T00:02:38;-0.20;99.90
27270;DHT22;14769;56.934;24.176;2023-02-24T00:03:40;-0.20;99.90
27270;DHT22;14769;56.934;24.176;2023-02-24T00:04:45;-0.20;99.90
27270;DHT22;14769;56.934;24.176;2023-02-24T00:05:52;-0.20;99.90
27270;DHT22;14769;56.934;24.176;2023-02-24T00:06:54;-0.20;99.90
27270;DHT22;14769;56.934;24.176;2023-02-24T00:07:56;-0.20;99.90
27270;DHT22;14769;56.934;24.176;2023-02-24T00:08:58;-0.20;99.90
27270;DHT22;14769;56.934;24.176;2023-02-24T00:10:00;-0.20;99.90
27270;DHT22;14769;56.934;24.176;2023-02-24T00:11:06;-0.20;99.90
27270;DHT22;14769;56.934;24.176;2023-02-24T00:12:10;-0.10;99.90
27270;DHT22;14769;56.934;24.176;2023-02-24T00:13:13;-0.20;99.90
27270;DHT22;14769;56.934;24.176;2023-02-24T00:14:19;-0.10;99.90
27270;DHT22;14769;56.934;24.176;2023-02-24T00:15:21;-0.20;99.90
27270;DHT22;14769;56.934;24.176;2023-02-24T00:16:23;-0.20;99.90
27270;DHT22;14769;56.934;24.176;2023-02-24T00:17:26;-0.10;99.90
27270;DHT22;14769;56.934;24.176;2023-02-24T00:18:31;-0.10;99.90
27270;DHT22;14769;56.934;24.176;2023-02-24T00:19:33;-0.10;99.90
27270;DHT22;14769;56.934;24.176;2023-02-24T00:20:35;-0.10;99.90
27270;DHT22;14769;56.934;24.176;2023-02-24T00:21:37;-0.10;99.90
27270;DHT22;14769;56.934;24.176;2023-02-24T00:22:39;-0.10;99.90
27270;DHT22;14769;56.934;24.176;2023-02-24T00:23:41;-0.10;99.90
27270;DHT22;14769;56.934;24.176;2023-02-24T00:24:43;-0.10;99.90
27270;DHT22;14769;56.934;24.176;2023-02-24T00:25:45;0.00;99.90
27270;DHT22;14769;56.934;24.176;2023-02-24T00:26:53;-0.10;99.90
27270;DHT22;14769;56.934;24.176;2023-02-24T00:27:55;0.00;99.90
27270;DHT22;14769;56.934;24.176;2023-02-24T00:29:06;0.00;99.90
27270;DHT22;14769;56.934;24.176;2023-02-24T00:30:08;-0.10;99.90
27270;DHT22;14769;56.934;24.176;2023-02-24T00:31:13;-0.10;99.90
27270;DHT22;14769;56.934;24.176;2023-02-24T00:32:16;0.00;99.90
27270;DHT22;14769;56.934;24.176;2023-02-24T00:33:18;-0.10;99.90
27270;DHT22;14769;56.934;24.176;2023-02-24T00:34:33;0.00;99.90
27270;DHT22;14769;56.934;24.176;2023-02-24T00:35:36;0.00;99.90
27270;DHT22;14769;56.934;24.176;2023-02-24T00:36:38;-0.10;99.90
27270;DHT22;14769;56.934;24.176;2023-02-24T00:37:40;0.00;99.90
27270;DHT22;14769;56.934;24.176;2023-02-24T00:38:42;-0.10;99.90
27270;DHT22;14769;56.934;24.176;2023-02-24T00:39:47;0.00;99.90
27270;DHT22;14769;56.934;24.176;2023-02-24T00:40:49;0.00;99.90
27270;DHT22;14769;56.934;24.176;2023-02-24T00:41:51;0.00;99.90
27270;DHT22;14769;56.934;24.176;2023-02-24T00:42:53;0.00;99.90
27270;DHT22;14769;56.934;24.176;2023-02-24T00:43:58;0.00;99.90
27270;DHT22;14769;56.934;24.176;2023-02-24T00:45:06;0.00;99.90
27270;DHT22;14769;56.934;24.176;2023-02-24T00:46:15;0.00;99.90
27270;DHT22;14769;56.934;24.176;2023-02-24T00:47:17;0.00;99.90
27270;DHT22;14769;56.934;24.176;2023-02-24T00:48:19;0.00;99.90
27270;DHT22;14769;56.934;24.176;2023-02-24T00:49:21;0.00;99.90
27270;DHT22;14769;56.934;24.176;2023-02-24T00:50:25;0.00;99.90
27270;DHT22;14769;56.934;24.176;2023-02-24T00:51:27;0.00;99.90
27270;DHT22;14769;56.934;24.176;2023-02-24T00:52:28;0.00;99.90
27270;DHT22;14769;56.934;24.176;2023-02-24T00:53:30;0.00;99.90
27270;DHT22;14769;56.934;24.176;2023-02-24T00:54:34;0.00;99.90
27270;DHT22;14769;56.934;24.176;2023-02-24T00:55:36;0.00;99.90
27270;DHT22;14769;56.934;24.176;2023-02-24T00:56:38;0.00;99.90
27270;DHT22;14769;56.934;24.176;2023-02-24T00:57:40;0.00;99.90
27270;DHT22;14769;56.934;24.176;2023-02-24T00:58:42;0.00;99.90
27270;DHT22;14769;56.934;24.176;2023-02-24T00:59:45;0.00;99.90
27270;DHT22;14769;56.934;24.176;2023-02-24T01:00:52;0.00;99.90
27270;DHT22;14769;56.934;24.176;2023-02-24T01:01:56;0.10;99.90
27270;DHT22;14769;56.934;24.176;2023-02-24T01:02:58;0.10;99.90
27270;DHT22;14769;56.934;24.176;2023-02-24T01:04:00;0.10;99.90
27270;DHT22;14769;56.934;24.176;2023-02-24T01:05:11;0.00;99.90
27270;DHT22;14769;56.934;24.176;2023-02-24T01:06:13;0.10;99.90
27270;DHT22;14769;56.934;24.176;2023-02-24T01:07:18;0.10;99.90
27270;DHT22;14769;56.934;24.176;2023-02-24T01:08:19;0.10;99.90
27270;DHT22;14769;56.934;24.176;2023-02-24T01:09:23;0.10;99.90
27270;DHT22;14769;56.934;24.176;2023-02-24T01:10:27;0.10;99.90
27270;DHT22;14769;56.934;24.176;2023-02-24T01:11:31;0.10;99.90
27270;DHT22;14769;56.934;24.176;2023-02-24T01:12:52;0.10;99.90
27270;DHT22;14769;56.934;24.176;2023-02-24T01:13:54;0.10;99.90
27270;DHT22;14769;56.934;24.176;2023-02-24T01:14:56;0.10;99.90
27270;DHT22;14769;56.934;24.176;2023-02-24T01:15:58;0.10;99.90
27270;DHT22;14769;56.934;24.176;2023-02-24T01:17:03;0.10;99.90
27270;DHT22;14769;56.934;24.176;2023-02-24T01:18:05;0.10;99.90
27270;DHT22;14769;56.934;24.176;2023-02-24T01:19:07;0.10;99.90
27270;DHT22;14769;56.934;24.176;2023-02-24T01:20:09;0.10;99.90
27270;DHT22;14769;56.934;24.176;2023-02-24T01:21:18;0.10;99.90
27270;DHT22;14769;56.934;24.176;2023-02-24T01:22:21;0.10;99.90
27270;DHT22;14769;56.934;24.176;2023-02-24T01:23:23;0.10;99.90
27270;DHT22;14769;56.934;24.176;2023-02-24T01:24:24;0.10;99.90
27270;DHT22;14769;56.934;24.176;2023-02-24T01:25:26;0.10;99.90
27270;DHT22;14769;56.934;24.176;2023-02-24T01:26:31;0.10;99.90
27270;DHT22;14769;56.934;24.176;2023-02-24T01:27:33;0.10;99.90
27270;DHT22;14769;56.934;24.176;2023-02-24T01:28:37;0.10;99.90
27270;DHT22;14769;56.934;24.176;2023-02-24T01:29:39;0.10;99.90
27270;DHT22;14769;56.934;24.176;2023-02-24T01:30:41;0.10;99.90
27270;DHT22;14769;56.934;24.176;2023-02-24T01:31:44;0.10;99.90
27270;DHT22;14769;56.934;24.176;2023-02-24T01:32:50;0.10;99.90
27270;DHT22;14769;56.934;24.176;2023-02-24T01:33:52;0.20;99.90
27270;DHT22;14769;56.934;24.176;2023-02-24T01:34:55;0.10;99.90
27270;DHT22;14769;56.934;24.176;2023-02-24T01:35:57;0.20;99.90
27270;DHT22;14769;56.934;24.176;2023-02-24T01:37:08;0.20;99.90
27270;DHT22;14769;56.934;24.176;2023-02-24T01:38:10;0.20;99.90
27270;DHT22;14769;56.934;24.176;2023-02-24T01:39:12;0.10;99.90
27270;DHT22;14769;56.934;24.176;2023-02-24T01:40:14;0.20;99.90
27270;DHT22;14769;56.934;24.176;2023-02-24T01:41:22;0.10;99.90
27270;DHT22;14769;56.934;24.176;2023-02-24T01:42:24;0.20;99.90
27270;DHT22;14769;56.934;24.176;2023-02-24T01:43:25;0.10;99.90
27270;DHT22;14769;56.934;24.176;2023-02-24T01:45:30;0.20;99.90
27270;DHT22;14769;56.934;24.176;2023-02-24T01:46:37;0.10;99.90
27270;DHT22;14769;56.934;24.176;2023-02-24T01:47:40;0.10;99.90
27270;DHT22;14769;56.934;24.176;2023-02-24T01:48:42;0.10;99.90
27270;DHT22;14769;56.934;24.176;2023-02-24T01:49:44;0.20;99.90
27270;DHT22;14769;56.934;24.176;2023-02-24T01:50:47;0.20;99.90
27270;DHT22;14769;56.934;24.176;2023-02-24T01:51:51;0.10;99.90
27270;DHT22;14769;56.934;24.176;2023-02-24T01:52:56;0.20;99.90
27270;DHT22;14769;56.934;24.176;2023-02-24T01:53:59;0.20;99.90
27270;DHT22;14769;56.934;24.176;2023-02-24T01:55:06;0.20;99.90
27270;DHT22;14769;56.934;24.176;2023-02-24T01:56:09;0.20;99.90
27270;DHT22;14769;56.934;24.176;2023-02-24T01:57:14;0.20;99.90
27270;DHT22;14769;56.934;24.176;2023-02-24T01:58:19;0.20;99.90
27270;DHT22;14769;56.934;24.176;2023-02-24T01:59:23;0.20;99.90
27270;DHT22;14769;56.934;24.176;2023-02-24T02:00:26;0.20;99.90
27270;DHT22;14769;56.934;24.176;2023-02-24T02:01:45;0.20;99.90
27270;DHT22;14769;56.934;24.176;2023-02-24T02:02:48;0.10;99.90
27270;DHT22;14769;56.934;24.176;2023-02-24T02:03:55;0.20;99.90
27270;DHT22;14769;56.934;24.176;2023-02-24T02:05:02;0.20;99.90
27270;DHT22;14769;56.934;24.176;2023-02-24T02:06:05;0.20;99.90
27270;DHT22;14769;56.934;24.176;2023-02-24T02:07:12;0.20;99.90
27270;DHT22;14769;56.934;24.176;2023-02-24T02:08:15;0.20;99.90
27270;DHT22;14769;56.934;24.176;2023-02-24T02:09:18;0.20;99.90
27270;DHT22;14769;56.934;24.176;2023-02-24T02:10:20;0.20;99.90
27270;DHT22;14769;56.934;24.176;2023-02-24T02:11:22;0.20;99.90
27270;DHT22;14769;56.934;24.176;2023-02-24T02:12:24;0.20;99.90
27270;DHT22;14769;56.934;24.176;2023-02-24T02:13:27;0.20;99.90
27270;DHT22;14769;56.934;24.176;2023-02-24T02:14:29;0.20;99.90
27270;DHT22;14769;56.934;24.176;2023-02-24T02:15:31;0.30;99.90
27270;DHT22;14769;56.934;24.176;2023-02-24T02:17:53;0.20;99.90
27270;DHT22;14769;56.934;24.176;2023-02-24T02:19:04;0.20;99.90
27270;DHT22;14769;56.934;24.176;2023-02-24T02:28:32;0.30;99.90
27270;DHT22;14769;56.934;24.176;2023-02-24T02:32:37;0.20;99.90
27270;DHT22;14769;56.934;24.176;2023-02-24T02:34:53;0.20;99.90
27270;DHT22;14769;56.934;24.176;2023-02-24T02:43:56;0.20;99.90
27270;DHT22;14769;56.934;24.176;2023-02-24T02:46:12;0.30;99.90
27270;DHT22;14769;56.934;24.176;2023-02-24T02:47:21;0.30;99.90
27270;DHT22;14769;56.934;24.176;2023-02-24T02:49:39;0.30;99.90
27270;DHT22;14769;56.934;24.176;2023-02-24T02:50:44;0.30;99.90
27270;DHT22;14769;56.934;24.176;2023-02-24T02:51:49;0.30;99.90
27270;DHT22;14769;56.934;24.176;2023-02-24T02:52:58;0.20;99.90
27270;DHT22;14769;56.934;24.176;2023-02-24T02:54:06;0.30;99.90
27270;DHT22;14769;56.934;24.176;2023-02-24T02:55:11;0.30;99.90
27270;DHT22;14769;56.934;24.176;2023-02-24T02:56:16;0.30;99.90
27270;DHT22;14769;56.934;24.176;2023-02-24T02:57:23;0.30;99.90
27270;DHT22;14769;56.934;24.176;2023-02-24T02:58:27;0.30;99.90
27270;DHT22;14769;56.934;24.176;2023-02-24T02:59:31;0.30;99.90
27270;DHT22;14769;56.934;24.176;2023-02-24T03:00:37;0.30;99.90
27270;DHT22;14769;56.934;24.176;2023-02-24T03:01:42;0.40;99.90
27270;DHT22;14769;56.934;24.176;2023-02-24T03:02:47;0.40;99.90
27270;DHT22;14769;56.934;24.176;2023-02-24T03:03:51;0.40;99.90
27270;DHT22;14769;56.934;24.176;2023-02-24T03:04:55;0.40;99.90
27270;DHT22;14769;56.934;24.176;2023-02-24T03:05:59;0.40;99.90
27270;DHT22;14769;56.934;24.176;2023-02-24T03:07:03;0.40;99.90
27270;DHT22;14769;56.934;24.176;2023-02-24T03:08:05;0.40;99.90
27270;DHT22;14769;56.934;24.176;2023-02-24T03:09:19;0.40;99.90
27270;DHT22;14769;56.934;24.176;2023-02-24T03:10:23;0.40;99.90
27270;DHT22;14769;56.934;24.176;2023-02-24T03:11:25;0.40;99.90
27270;DHT22;14769;56.934;24.176;2023-02-24T03:12:28;0.40;99.90
27270;DHT22;14769;56.934;24.176;2023-02-24T03:13:33;0.40;99.90
27270;DHT22;14769;56.934;24.176;2023-02-24T03:14:38;0.40;99.90
27270;DHT22;14769;56.934;24.176;2023-02-24T03:15:40;0.40;99.90
27270;DHT22;14769;56.934;24.176;2023-02-24T03:16:45;0.40;99.90
27270;DHT22;14769;56.934;24.176;2023-02-24T03:17:51;0.40;99.90
27270;DHT22;14769;56.934;24.176;2023-02-24T03:19:01;0.40;99.90
27270;DHT22;14769;56.934;24.176;2023-02-24T03:20:06;0.40;99.90
27270;DHT22;14769;56.934;24.176;2023-02-24T03:21:18;0.40;99.90
27270;DHT22;14769;56.934;24.176;2023-02-24T03:22:26;0.40;99.90
27270;DHT22;14769;56.934;24.176;2023-02-24T03:23:30;0.40;99.90
27270;DHT22;14769;56.934;24.176;2023-02-24T03:24:35;0.40;99.90
27270;DHT22;14769;56.934;24.176;2023-02-24T03:25:41;0.50;99.90
27270;DHT22;14769;56.934;24.176;2023-02-24T03:26:50;0.40;99.90
27270;DHT22;14769;56.934;24.176;2023-02-24T03:27:54;0.40;99.90
27270;DHT22;14769;56.934;24.176;2023-02-24T03:30:03;0.40;99.90
27270;DHT22;14769;56.934;24.176;2023-02-24T03:32:12;0.50;99.90
27270;DHT22;14769;56.934;24.176;2023-02-24T03:34:29;0.50;99.90
27270;DHT22;14769;56.934;24.176;2023-02-24T03:35:37;0.50;99.90
27270;DHT22;14769;56.934;24.176;2023-02-24T03:36:40;0.50;99.90
27270;DHT22;14769;56.934;24.176;2023-02-24T03:37:43;0.50;99.90
27270;DHT22;14769;56.934;24.176;2023-02-24T03:38:45;0.40;99.90
27270;DHT22;14769;56.934;24.176;2023-02-24T03:39:51;0.50;99.90
27270;DHT22;14769;56.934;24.176;2023-02-24T03:40:53;0.50;99.90
27270;DHT22;14769;56.934;24.176;2023-02-24T03:42:07;0.50;99.90
27270;DHT22;14769;56.934;24.176;2023-02-24T03:43:15;0.50;99.90
27270;DHT22;14769;56.934;24.176;2023-02-24T03:44:18;0.50;99.90
27270;DHT22;14769;56.934;24.176;2023-02-24T03:45:20;0.50;99.90
27270;DHT22;14769;56.934;24.176;2023-02-24T03:46:23;0.50;99.90
27270;DHT22;14769;56.934;24.176;2023-02-24T03:47:25;0.50;99.90
27270;DHT22;14769;56.934;24.176;2023-02-24T03:48:27;0.50;99.90
27270;DHT22;14769;56.934;24.176;2023-02-24T03:49:29;0.50;99.90
27270;DHT22;14769;56.934;24.176;2023-02-24T03:50:31;0.50;99.90
27270;DHT22;14769;56.934;24.176;2023-02-24T03:51:33;0.50;99.90
27270;DHT22;14769;56.934;24.176;2023-02-24T03:58:35;0.50;99.90
27270;DHT22;14769;56.934;24.176;2023-02-24T04:02:23;0.50;99.90
27270;DHT22;14769;56.934;24.176;2023-02-24T04:03:45;0.50;99.90
27270;DHT22;14769;56.934;24.176;2023-02-24T04:05:09;0.50;99.90
27270;DHT22;14769;56.934;24.176;2023-02-24T04:08:17;0.50;99.90
27270;DHT22;14769;56.934;24.176;2023-02-24T04:11:39;0.60;99.90
27270;DHT22;14769;56.934;24.176;2023-02-24T04:12:51;0.60;99.90
27270;DHT22;14769;56.934;24.176;2023-02-24T04:13:58;0.60;99.90
27270;DHT22;14769;56.934;24.176;2023-02-24T04:15:05;0.60;99.90
27270;DHT22;14769;56.934;24.176;2023-02-24T04:16:30;0.60;99.90
27270;DHT22;14769;56.934;24.176;2023-02-24T04:17:37;0.60;99.90
27270;DHT22;14769;56.934;24.176;2023-02-24T04:18:40;0.60;99.90
27270;DHT22;14769;56.934;24.176;2023-02-24T04:19:42;0.60;99.90
27270;DHT22;14769;56.934;24.176;2023-02-24T04:20:45;0.60;99.90
27270;DHT22;14769;56.934;24.176;2023-02-24T04:21:51;0.70;99.90
27270;DHT22;14769;56.934;24.176;2023-02-24T04:22:55;0.60;99.90
27270;DHT22;14769;56.934;24.176;2023-02-24T04:24:01;0.70;99.90
27270;DHT22;14769;56.934;24.176;2023-02-24T04:25:06;0.60;99.90
27270;DHT22;14769;56.934;24.176;2023-02-24T04:26:14;0.60;99.90
27270;DHT22;14769;56.934;24.176;2023-02-24T04:27:16;0.60;99.90
27270;DHT22;14769;56.934;24.176;2023-02-24T04:28:18;0.60;99.90
27270;DHT22;14769;56.934;24.176;2023-02-24T04:29:22;0.60;99.90
27270;DHT22;14769;56.934;24.176;2023-02-24T04:30:27;0.70;99.90
27270;DHT22;14769;56.934;24.176;2023-02-24T04:31:30;0.70;99.90
27270;DHT22;14769;56.934;24.176;2023-02-24T04:32:33;0.70;99.90
27270;DHT22;14769;56.934;24.176;2023-02-24T04:33:35;0.70;99.90
27270;DHT22;14769;56.934;24.176;2023-02-24T04:34:39;0.70;99.90
27270;DHT22;14769;56.934;24.176;2023-02-24T04:35:43;0.70;99.90
27270;DHT22;14769;56.934;24.176;2023-02-24T04:36:46;0.70;99.90
27270;DHT22;14769;56.934;24.176;2023-02-24T04:37:50;0.70;99.90
27270;DHT22;14769;56.934;24.176;2023-02-24T04:38:52;0.70;99.90
27270;DHT22;14769;56.934;24.176;2023-02-24T04:39:54;0.70;99.90
27270;DHT22;14769;56.934;24.176;2023-02-24T04:40:56;0.70;99.90
27270;DHT22;14769;56.934;24.176;2023-02-24T04:41:58;0.70;99.90
27270;DHT22;14769;56.934;24.176;2023-02-24T04:43:02;0.70;99.90
27270;DHT22;14769;56.934;24.176;2023-02-24T04:44:04;0.70;99.90
27270;DHT22;14769;56.934;24.176;2023-02-24T04:45:06;0.70;99.90
27270;DHT22;14769;56.934;24.176;2023-02-24T04:46:10;0.70;99.90
27270;DHT22;14769;56.934;24.176;2023-02-24T04:47:13;0.70;99.90
27270;DHT22;14769;56.934;24.176;2023-02-24T04:48:15;0.70;99.90
27270;DHT22;14769;56.934;24.176;2023-02-24T04:49:17;0.70;99.90
27270;DHT22;14769;56.934;24.176;2023-02-24T04:50:19;0.70;99.90
27270;DHT22;14769;56.934;24.176;2023-02-24T04:51:24;0.70;99.90
27270;DHT22;14769;56.934;24.176;2023-02-24T04:52:26;0.70;99.90
27270;DHT22;14769;56.934;24.176;2023-02-24T04:53:28;0.70;99.90
27270;DHT22;14769;56.934;24.176;2023-02-24T04:54:30;0.70;99.90
27270;DHT22;14769;56.934;24.176;2023-02-24T04:55:34;0.70;99.90
27270;DHT22;14769;56.934;24.176;2023-02-24T04:56:40;0.70;99.90
27270;DHT22;14769;56.934;24.176;2023-02-24T04:57:42;0.70;99.90
27270;DHT22;14769;56.934;24.176;2023-02-24T04:58:46;0.70;99.90
27270;DHT22;14769;56.934;24.176;2023-02-24T04:59:48;0.70;99.90
27270;DHT22;14769;56.934;24.176;2023-02-24T05:00:50;0.70;99.90
27270;DHT22;14769;56.934;24.176;2023-02-24T05:01:58;0.70;99.90
27270;DHT22;14769;56.934;24.176;2023-02-24T05:03:02;0.70;99.90
27270;DHT22;14769;56.934;24.176;2023-02-24T05:04:05;0.70;99.90
27270;DHT22;14769;56.934;24.176;2023-02-24T05:05:07;0.70;99.90
27270;DHT22;14769;56.934;24.176;2023-02-24T05:06:13;0.70;99.90
27270;DHT22;14769;56.934;24.176;2023-02-24T05:07:14;0.70;99.90
27270;DHT22;14769;56.934;24.176;2023-02-24T05:08:17;0.70;99.90
27270;DHT22;14769;56.934;24.176;2023-02-24T05:09:18;0.80;99.90
27270;DHT22;14769;56.934;24.176;2023-02-24T05:10:21;0.80;99.90
27270;DHT22;14769;56.934;24.176;2023-02-24T05:11:28;0.80;99.90
27270;DHT22;14769;56.934;24.176;2023-02-24T05:12:35;0.80;99.90
27270;DHT22;14769;56.934;24.176;2023-02-24T05:13:40;0.80;99.90
27270;DHT22;14769;56.934;24.176;2023-02-24T05:14:46;0.80;99.90
27270;DHT22;14769;56.934;24.176;2023-02-24T05:15:50;0.80;99.90
27270;DHT22;14769;56.934;24.176;2023-02-24T05:16:51;0.80;99.90
27270;DHT22;14769;56.934;24.176;2023-02-24T05:17:53;0.80;99.90
27270;DHT22;14769;56.934;24.176;2023-02-24T05:18:55;0.80;99.90
27270;DHT22;14769;56.934;24.176;2023-02-24T05:20:15;0.80;99.90
27270;DHT22;14769;56.934;24.176;2023-02-24T05:21:35;0.80;99.90
27270;DHT22;14769;56.934;24.176;2023-02-24T05:22:37;0.80;99.90
27270;DHT22;14769;56.934;24.176;2023-02-24T05:23:43;0.80;99.90
27270;DHT22;14769;56.934;24.176;2023-02-24T05:24:45;0.80;99.90
27270;DHT22;14769;56.934;24.176;2023-02-24T05:25:48;0.80;99.90
27270;DHT22;14769;56.934;24.176;2023-02-24T05:26:55;0.80;99.90
27270;DHT22;14769;56.934;24.176;2023-02-24T05:28:00;0.80;99.90
27270;DHT22;14769;56.934;24.176;2023-02-24T05:29:04;0.90;99.90
27270;DHT22;14769;56.934;24.176;2023-02-24T05:30:07;0.80;99.90
27270;DHT22;14769;56.934;24.176;2023-02-24T05:31:14;0.80;99.90
27270;DHT22;14769;56.934;24.176;2023-02-24T05:32:16;0.80;99.90
27270;DHT22;14769;56.934;24.176;2023-02-24T05:33:19;0.90;99.90
27270;DHT22;14769;56.934;24.176;2023-02-24T05:34:24;0.90;99.90
27270;DHT22;14769;56.934;24.176;2023-02-24T05:35:26;0.90;99.90
27270;DHT22;14769;56.934;24.176;2023-02-24T05:36:30;0.80;99.90
27270;DHT22;14769;56.934;24.176;2023-02-24T05:37:36;0.90;99.90
27270;DHT22;14769;56.934;24.176;2023-02-24T05:38:38;0.90;99.90
27270;DHT22;14769;56.934;24.176;2023-02-24T05:39:39;0.90;99.90
27270;DHT22;14769;56.934;24.176;2023-02-24T05:40:41;0.90;99.90
27270;DHT22;14769;56.934;24.176;2023-02-24T05:41:48;0.90;99.90
27270;DHT22;14769;56.934;24.176;2023-02-24T05:42:50;0.90;99.90
27270;DHT22;14769;56.934;24.176;2023-02-24T05:43:53;0.90;99.90
27270;DHT22;14769;56.934;24.176;2023-02-24T05:44:55;0.90;99.90
27270;DHT22;14769;56.934;24.176;2023-02-24T05:46:01;0.90;99.90
27270;DHT22;14769;56.934;24.176;2023-02-24T05:47:07;0.90;99.90
27270;DHT22;14769;56.934;24.176;2023-02-24T05:48:11;0.90;99.90
27270;DHT22;14769;56.934;24.176;2023-02-24T05:49:19;0.90;99.90
27270;DHT22;14769;56.934;24.176;2023-02-24T05:50:24;0.90;99.90
27270;DHT22;14769;56.934;24.176;2023-02-24T05:51:28;0.90;99.90
27270;DHT22;14769;56.934;24.176;2023-02-24T05:52:37;0.90;99.90
27270;DHT22;14769;56.934;24.176;2023-02-24T05:53:39;0.90;99.90
27270;DHT22;14769;56.934;24.176;2023-02-24T05:54:43;0.90;99.90
27270;DHT22;14769;56.934;24.176;2023-02-24T05:55:45;0.90;99.90
27270;DHT22;14769;56.934;24.176;2023-02-24T05:56:47;0.90;99.90
27270;DHT22;14769;56.934;24.176;2023-02-24T05:57:49;1.00;99.90
27270;DHT22;14769;56.934;24.176;2023-02-24T05:58:53;1.00;99.90
27270;DHT22;14769;56.934;24.176;2023-02-24T06:00:02;1.00;99.90
27270;DHT22;14769;56.934;24.176;2023-02-24T06:01:15;1.00;99.90
27270;DHT22;14769;56.934;24.176;2023-02-24T06:02:21;1.00;99.90
27270;DHT22;14769;56.934;24.176;2023-02-24T06:03:28;1.00;99.90
27270;DHT22;14769;56.934;24.176;2023-02-24T06:04:32;1.00;99.90
27270;DHT22;14769;56.934;24.176;2023-02-24T06:05:54;1.00;99.90
27270;DHT22;14769;56.934;24.176;2023-02-24T06:06:59;1.00;99.90
27270;DHT22;14769;56.934;24.176;2023-02-24T06:08:04;1.00;99.90
27270;DHT22;14769;56.934;24.176;2023-02-24T06:09:07;1.00;99.90
27270;DHT22;14769;56.934;24.176;2023-02-24T06:10:11;1.00;99.90
27270;DHT22;14769;56.934;24.176;2023-02-24T06:11:13;1.00;99.90
27270;DHT22;14769;56.934;24.176;2023-02-24T06:12:15;1.10;99.90
27270;DHT22;14769;56.934;24.176;2023-02-24T06:13:17;1.10;99.90
27270;DHT22;14769;56.934;24.176;2023-02-24T06:14:19;1.10;99.90
27270;DHT22;14769;56.934;24.176;2023-02-24T06:15:23;1.10;99.90
27270;DHT22;14769;56.934;24.176;2023-02-24T06:16:25;1.10;99.90
27270;DHT22;14769;56.934;24.176;2023-02-24T06:17:27;1.10;99.90
27270;DHT22;14769;56.934;24.176;2023-02-24T06:18:29;1.20;99.90
27270;DHT22;14769;56.934;24.176;2023-02-24T06:19:31;1.20;99.90
27270;DHT22;14769;56.934;24.176;2023-02-24T06:20:33;1.20;99.90
27270;DHT22;14769;56.934;24.176;2023-02-24T06:21:39;1.20;99.90
27270;DHT22;14769;56.934;24.176;2023-02-24T06:22:42;1.20;99.90
27270;DHT22;14769;56.934;24.176;2023-02-24T06:23:43;1.20;99.90
27270;DHT22;14769;56.934;24.176;2023-02-24T06:24:45;1.20;99.90
27270;DHT22;14769;56.934;24.176;2023-02-24T06:25:49;1.20;99.90
27270;DHT22;14769;56.934;24.176;2023-02-24T06:26:51;1.30;99.90
27270;DHT22;14769;56.934;24.176;2023-02-24T06:27:54;1.20;99.90
27270;DHT22;14769;56.934;24.176;2023-02-24T06:28:56;1.30;99.90
27270;DHT22;14769;56.934;24.176;2023-02-24T06:29:59;1.30;99.90
27270;DHT22;14769;56.934;24.176;2023-02-24T06:31:03;1.30;99.90
27270;DHT22;14769;56.934;24.176;2023-02-24T06:32:08;1.30;99.90
27270;DHT22;14769;56.934;24.176;2023-02-24T06:33:10;1.30;99.90
27270;DHT22;14769;56.934;24.176;2023-02-24T06:34:12;1.30;99.90
27270;DHT22;14769;56.934;24.176;2023-02-24T06:35:14;1.30;99.90
27270;DHT22;14769;56.934;24.176;2023-02-24T06:36:16;1.30;99.90
27270;DHT22;14769;56.934;24.176;2023-02-24T06:37:18;1.30;99.90
27270;DHT22;14769;56.934;24.176;2023-02-24T06:38:20;1.30;99.90
27270;DHT22;14769;56.934;24.176;2023-02-24T06:39:22;1.40;99.90
27270;DHT22;14769;56.934;24.176;2023-02-24T06:40:23;1.40;99.90
27270;DHT22;14769;56.934;24.176;2023-02-24T06:41:25;1.40;99.90
27270;DHT22;14769;56.934;24.176;2023-02-24T06:42:30;1.40;99.90
27270;DHT22;14769;56.934;24.176;2023-02-24T06:43:32;1.40;99.90
27270;DHT22;14769;56.934;24.176;2023-02-24T06:44:35;1.40;99.90
27270;DHT22;14769;56.934;24.176;2023-02-24T06:45:37;1.40;99.90
27270;DHT22;14769;56.934;24.176;2023-02-24T06:46:39;1.40;99.90
27270;DHT22;14769;56.934;24.176;2023-02-24T06:47:42;1.40;99.90
27270;DHT22;14769;56.934;24.176;2023-02-24T06:48:43;1.40;99.90
27270;DHT22;14769;56.934;24.176;2023-02-24T06:49:45;1.40;99.90
27270;DHT22;14769;56.934;24.176;2023-02-24T06:50:48;1.40;99.90
27270;DHT22;14769;56.934;24.176;2023-02-24T06:51:53;1.50;99.90
27270;DHT22;14769;56.934;24.176;2023-02-24T06:52:55;1.50;99.90
27270;DHT22;14769;56.934;24.176;2023-02-24T06:54:01;1.50;99.90
27270;DHT22;14769;56.934;24.176;2023-02-24T06:55:03;1.50;99.90
27270;DHT22;14769;56.934;24.176;2023-02-24T06:56:05;1.50;99.90
27270;DHT22;14769;56.934;24.176;2023-02-24T06:57:15;1.50;99.90
27270;DHT22;14769;56.934;24.176;2023-02-24T06:58:18;1.50;99.90
27270;DHT22;14769;56.934;24.176;2023-02-24T06:59:20;1.50;99.90
27270;DHT22;14769;56.934;24.176;2023-02-24T07:00:23;1.50;99.90
27270;DHT22;14769;56.934;24.176;2023-02-24T07:01:28;1.60;99.90
27270;DHT22;14769;56.934;24.176;2023-02-24T07:02:30;1.60;99.90
27270;DHT22;14769;56.934;24.176;2023-02-24T07:03:40;1.60;99.90
27270;DHT22;14769;56.934;24.176;2023-02-24T07:05:04;1.60;99.90
27270;DHT22;14769;56.934;24.176;2023-02-24T07:06:07;1.60;99.90
27270;DHT22;14769;56.934;24.176;2023-02-24T07:07:20;1.70;99.90
27270;DHT22;14769;56.934;24.176;2023-02-24T07:08:23;1.70;99.90
27270;DHT22;14769;56.934;24.176;2023-02-24T07:09:25;1.70;99.90
27270;DHT22;14769;56.934;24.176;2023-02-24T07:10:27;1.70;99.90
27270;DHT22;14769;56.934;24.176;2023-02-24T07:11:30;1.70;99.90
27270;DHT22;14769;56.934;24.176;2023-02-24T07:12:32;1.70;99.90
27270;DHT22;14769;56.934;24.176;2023-02-24T07:13:34;1.70;99.90
27270;DHT22;14769;56.934;24.176;2023-02-24T07:14:37;1.70;99.90
27270;DHT22;14769;56.934;24.176;2023-02-24T07:15:39;1.80;99.90
27270;DHT22;14769;56.934;24.176;2023-02-24T07:16:41;1.80;99.90
27270;DHT22;14769;56.934;24.176;2023-02-24T07:17:46;1.80;99.90
27270;DHT22;14769;56.934;24.176;2023-02-24T07:18:51;1.90;99.90
27270;DHT22;14769;56.934;24.176;2023-02-24T07:19:54;1.80;99.90
27270;DHT22;14769;56.934;24.176;2023-02-24T07:20:59;1.90;99.90
27270;DHT22;14769;56.934;24.176;2023-02-24T07:22:05;1.90;99.90
27270;DHT22;14769;56.934;24.176;2023-02-24T07:23:08;1.80;99.90
27270;DHT22;14769;56.934;24.176;2023-02-24T07:24:10;1.90;99.90
27270;DHT22;14769;56.934;24.176;2023-02-24T07:25:13;1.90;99.90
27270;DHT22;14769;56.934;24.176;2023-02-24T07:26:31;1.90;99.90
27270;DHT22;14769;56.934;24.176;2023-02-24T07:27:34;2.00;99.90